Time;durP1;ratioP1;P1;durP2;ratioP2;P2;SDS_P1;SDS_P2;PMS_P1;PMS_P2;Temp;Humidity;BMP_temperature;BMP_pressure;BME280_temperature;BME280_humidity;BME280_pressure;Samples;Min_cycle;Max_cycle;Signal;HPM_P1;HPM_P2
2022/01/03 00:01:02;;;;;;;;;;;10.90;99.90;;;;;;5033264;28;19992;-77
2022/01/03 00:03:27;;;;;;;;;;;10.90;99.90;;;;;;5033222;28;19913;-78
2022/01/03 00:05:53;;;;;;;;;;;10.90;99.90;;;;;;5041852;28;19981;-78
2022/01/03 00:08:20;;;;;;;;;;;10.90;99.90;;;;;;5027551;28;19917;-79
2022/01/03 00:13:09;;;;;;;;;;;10.90;99.90;;;;;;5120606;27;19920;-79
2022/01/03 00:15:34;;;;;;;;;;;10.90;99.90;;;;;;5125493;27;20407;-78
2022/01/03 00:18:00;;;;;;;;;;;10.80;99.90;;;;;;5120336;28;19912;-79
2022/01/03 00:20:26;;;;;;;;;;;10.80;99.90;;;;;;5130487;28;19914;-79
2022/01/03 00:23:00;;;;;;;;;;;10.80;99.90;;;;;;5131849;27;19969;-79
2022/01/03 00:25:26;;;;;;;;;;;10.80;99.90;;;;;;5097286;28;19995;-79
2022/01/03 00:28:14;;;;;;;;;;;10.80;99.90;;;;;;5132543;28;19943;-79
2022/01/03 00:30:41;;;;;;;;;;;10.80;99.90;;;;;;5119675;27;20010;-79
2022/01/03 00:33:07;;;;;;;;;;;10.90;99.90;;;;;;5122832;27;19919;-79
2022/01/03 00:35:36;;;;;;;;;;;10.80;99.90;;;;;;5128758;27;19908;-79
2022/01/03 00:38:02;;;;;;;;;;;10.80;99.90;;;;;;5122772;27;19912;-79
2022/01/03 00:40:28;;;;;;;;;;;10.80;99.90;;;;;;5123871;27;19927;-79
2022/01/03 00:42:53;;;;;;;;;;;10.80;33.70;;;;;;5129318;27;20279;-79
2022/01/03 00:45:19;;;;;;;;;;;10.80;20.50;;;;;;5122626;28;19908;-79
2022/01/03 00:47:45;;;;;;;;;;;10.80;1.00;;;;;;5125576;27;19919;-79
2022/01/03 00:50:12;;;;;;;;;;;10.80;1.00;;;;;;5138401;27;19954;-79
2022/01/03 00:52:38;;;;;;;;;;;10.80;1.00;;;;;;5110528;28;19927;-79
2022/01/03 00:55:04;;;;;;;;;;;10.70;35.80;;;;;;5120235;27;19907;-79
2022/01/03 00:57:36;;;;;;;;;;;10.70;99.90;;;;;;5145684;27;19943;-79
2022/01/03 01:00:05;;;;;;;;;;;10.70;99.90;;;;;;5120018;28;19915;-79
2022/01/03 01:02:34;;;;;;;;;;;10.60;99.90;;;;;;5130267;27;19942;-79
2022/01/03 01:05:01;;;;;;;;;;;10.60;99.90;;;;;;5124049;27;19991;-79
2022/01/03 01:07:29;;;;;;;;;;;10.70;99.90;;;;;;5111841;28;20372;-79
2022/01/03 01:09:55;;;;;;;;;;;10.70;99.90;;;;;;5109941;28;20221;-79
2022/01/03 01:12:21;;;;;;;;;;;10.70;99.90;;;;;;5118088;28;19923;-79
2022/01/03 01:14:50;;;;;;;;;;;10.70;99.90;;;;;;5118723;27;19919;-79
2022/01/03 01:17:15;;;;;;;;;;;10.60;99.90;;;;;;5116809;28;19918;-79
2022/01/03 01:19:41;;;;;;;;;;;10.60;99.90;;;;;;5121595;27;19986;-79
2022/01/03 01:22:07;;;;;;;;;;;10.60;99.90;;;;;;5126221;27;20407;-79
2022/01/03 01:24:44;;;;;;;;;;;10.70;99.90;;;;;;5107198;28;19915;-79
2022/01/03 01:29:54;;;;;;;;;;;10.70;99.90;;;;;;5102981;28;19947;-79
2022/01/03 01:32:19;;;;;;;;;;;10.70;99.90;;;;;;5107379;28;19941;-78
2022/01/03 01:34:47;;;;;;;;;;;10.70;99.90;;;;;;5094147;28;19994;-79
2022/01/03 01:37:16;;;;;;;;;;;10.70;99.90;;;;;;5105253;28;19977;-79
2022/01/03 01:39:42;;;;;;;;;;;10.70;99.90;;;;;;5096526;28;20829;-79
2022/01/03 01:42:12;;;;;;;;;;;10.70;99.90;;;;;;5106927;28;19916;-79
2022/01/03 01:44:38;;;;;;;;;;;10.70;30.60;;;;;;5112776;28;20024;-78
2022/01/03 01:47:04;;;;;;;;;;;10.70;1.00;;;;;;5088604;28;19908;-78
2022/01/03 01:49:33;;;;;;;;;;;10.70;1.00;;;;;;5099680;28;20401;-78
2022/01/03 01:52:00;;;;;;;;;;;10.70;1.00;;;;;;5106350;28;20375;-79
2022/01/03 01:54:30;;;;;;;;;;;10.70;1.00;;;;;;5111646;28;19996;-79
2022/01/03 01:57:07;;;;;;;;;;;10.60;1.00;;;;;;5087681;28;19909;-79
2022/01/03 01:59:40;;;;;;;;;;;10.60;1.00;;;;;;5109929;28;19934;-79
2022/01/03 02:02:06;;;;;;;;;;;10.60;1.00;;;;;;5106945;28;20359;-79
2022/01/03 02:04:43;;;;;;;;;;;10.50;1.00;;;;;;5134691;27;19916;-79
2022/01/03 02:07:24;;;;;;;;;;;10.50;1.00;;;;;;5109771;28;20352;-79
2022/01/03 02:09:58;;;;;;;;;;;10.50;1.00;;;;;;5096448;28;19916;-79
2022/01/03 02:12:26;;;;;;;;;;;10.40;1.00;;;;;;5106159;28;19984;-79
2022/01/03 02:14:57;;;;;;;;;;;10.40;1.00;;;;;;5095944;28;20433;-79
2022/01/03 02:17:22;;;;;;;;;;;10.40;1.00;;;;;;5094663;28;20006;-79
2022/01/03 02:20:17;;;;;;;;;;;10.50;1.00;;;;;;5082280;28;19966;-79
2022/01/03 02:22:43;;;;;;;;;;;10.50;1.00;;;;;;5081176;28;19958;-79
2022/01/03 02:25:10;;;;;;;;;;;10.50;1.00;;;;;;5098370;28;19912;-79
2022/01/03 02:27:36;;;;;;;;;;;10.50;1.00;;;;;;5128467;27;19920;-79
2022/01/03 02:30:03;;;;;;;;;;;10.50;1.00;;;;;;5113415;28;19908;-79
2022/01/03 02:32:29;;;;;;;;;;;10.50;1.00;;;;;;5098710;28;20371;-79
2022/01/03 02:34:54;;;;;;;;;;;10.50;1.00;;;;;;5103838;28;19916;-79
2022/01/03 02:37:21;;;;;;;;;;;10.50;1.00;;;;;;5112868;28;19908;-79
2022/01/03 02:39:47;;;;;;;;;;;10.50;1.00;;;;;;5103196;28;20311;-78
2022/01/03 02:42:12;;;;;;;;;;;10.40;1.00;;;;;;5093329;28;19922;-79
2022/01/03 02:44:38;;;;;;;;;;;10.50;1.00;;;;;;5094730;28;23345;-79
2022/01/03 02:47:03;;;;;;;;;;;10.40;1.00;;;;;;5096721;28;20300;-79
2022/01/03 02:49:29;;;;;;;;;;;10.40;1.00;;;;;;5109636;28;19957;-79
2022/01/03 02:51:54;;;;;;;;;;;10.40;1.00;;;;;;5098259;28;20014;-79
2022/01/03 02:54:20;;;;;;;;;;;10.40;1.00;;;;;;5094446;28;19913;-79
2022/01/03 02:56:45;;;;;;;;;;;10.40;1.00;;;;;;5124525;27;19972;-79
2022/01/03 02:59:12;;;;;;;;;;;10.30;1.00;;;;;;5113110;28;19912;-79
2022/01/03 03:01:40;;;;;;;;;;;10.30;1.00;;;;;;5093271;28;19908;-79
2022/01/03 03:04:05;;;;;;;;;;;10.40;1.00;;;;;;5100500;28;19916;-79
2022/01/03 03:06:31;;;;;;;;;;;10.40;1.00;;;;;;5101953;28;20379;-79
2022/01/03 03:08:56;;;;;;;;;;;10.40;1.00;;;;;;5107102;28;20437;-79
2022/01/03 03:11:21;;;;;;;;;;;10.40;1.00;;;;;;5128980;27;19916;-79
2022/01/03 03:13:47;;;;;;;;;;;10.40;1.00;;;;;;5104895;28;19922;-79
2022/01/03 03:16:12;;;;;;;;;;;10.40;1.00;;;;;;5107103;28;19908;-79
2022/01/03 03:18:42;;;;;;;;;;;10.40;1.00;;;;;;5100955;28;20454;-81
2022/01/03 03:21:07;;;;;;;;;;;10.40;1.00;;;;;;5096999;28;19990;-79
2022/01/03 03:23:33;;;;;;;;;;;10.40;1.00;;;;;;5103166;28;19951;-79
2022/01/03 03:25:58;;;;;;;;;;;10.40;99.90;;;;;;5108520;28;19912;-79
2022/01/03 03:28:25;;;;;;;;;;;10.40;99.90;;;;;;5114126;28;20369;-78
2022/01/03 03:30:50;;;;;;;;;;;10.40;99.90;;;;;;5107836;28;19908;-79
2022/01/03 03:33:17;;;;;;;;;;;10.30;99.90;;;;;;5103834;28;19916;-79
2022/01/03 03:35:43;;;;;;;;;;;10.30;99.90;;;;;;5110073;28;19912;-79
2022/01/03 03:38:09;;;;;;;;;;;10.30;99.90;;;;;;5107312;28;19912;-79
2022/01/03 03:40:35;;;;;;;;;;;10.30;99.90;;;;;;5104447;27;21127;-78
2022/01/03 03:43:00;;;;;;;;;;;10.40;99.90;;;;;;5086309;28;19908;-78
2022/01/03 03:45:26;;;;;;;;;;;10.40;99.90;;;;;;5102547;28;19912;-79
2022/01/03 03:47:52;;;;;;;;;;;10.40;99.90;;;;;;5107734;28;19915;-79
2022/01/03 03:50:18;;;;;;;;;;;10.40;99.90;;;;;;5086463;28;19912;-79
2022/01/03 03:52:44;;;;;;;;;;;10.40;99.90;;;;;;5084923;28;20071;-79
2022/01/03 03:55:10;;;;;;;;;;;10.40;99.90;;;;;;5114558;28;20002;-78
2022/01/03 03:57:36;;;;;;;;;;;10.50;99.90;;;;;;5087260;28;20011;-79
2022/01/03 04:00:03;;;;;;;;;;;10.50;99.90;;;;;;5097081;28;20021;-79
2022/01/03 04:02:29;;;;;;;;;;;10.50;37.60;;;;;;5126496;27;19965;-79
2022/01/03 04:04:54;;;;;;;;;;;10.50;1.00;;;;;;5112566;28;19912;-79
2022/01/03 04:07:20;;;;;;;;;;;10.50;1.00;;;;;;5113582;28;20010;-79
2022/01/03 04:09:45;;;;;;;;;;;10.50;1.00;;;;;;5115684;28;19908;-79
2022/01/03 04:12:11;;;;;;;;;;;10.50;1.00;;;;;;5093288;28;19983;-79
2022/01/03 04:14:36;;;;;;;;;;;10.40;1.00;;;;;;5089325;28;19924;-79
2022/01/03 04:17:02;;;;;;;;;;;10.40;1.00;;;;;;5095211;28;20474;-80
2022/01/03 04:19:27;;;;;;;;;;;10.30;1.00;;;;;;5132799;27;19998;-79
2022/01/03 04:21:53;;;;;;;;;;;10.30;1.00;;;;;;5108438;28;20376;-80
2022/01/03 04:24:18;;;;;;;;;;;10.30;1.00;;;;;;5103263;28;19912;-79
2022/01/03 04:26:45;;;;;;;;;;;10.20;1.00;;;;;;5108812;28;19912;-79
2022/01/03 04:29:10;;;;;;;;;;;10.20;1.00;;;;;;5093447;28;20365;-79
2022/01/03 04:31:36;;;;;;;;;;;10.20;1.00;;;;;;5087183;28;19919;-79
2022/01/03 04:34:01;;;;;;;;;;;10.30;1.00;;;;;;5093942;28;19915;-79
2022/01/03 04:36:27;;;;;;;;;;;10.30;99.90;;;;;;5084407;28;20007;-79
2022/01/03 04:38:53;;;;;;;;;;;10.30;99.90;;;;;;5096647;28;19912;-78
2022/01/03 04:41:19;;;;;;;;;;;10.30;99.90;;;;;;5084320;28;19912;-78
2022/01/03 04:43:44;;;;;;;;;;;10.20;99.90;;;;;;5109246;28;19983;-78
2022/01/03 04:46:10;;;;;;;;;;;10.20;99.90;;;;;;5106966;28;19919;-78
2022/01/03 04:48:36;;;;;;;;;;;10.20;99.90;;;;;;5114926;27;19908;-79
2022/01/03 04:51:02;;;;;;;;;;;10.20;99.90;;;;;;5102640;28;19911;-78
2022/01/03 04:53:28;;;;;;;;;;;10.20;1.00;;;;;;5094860;28;19915;-79
2022/01/03 04:55:53;;;;;;;;;;;10.20;99.90;;;;;;5127516;28;19916;-79
2022/01/03 04:58:19;;;;;;;;;;;10.20;99.90;;;;;;5127350;27;19912;-80
2022/01/03 05:00:44;;;;;;;;;;;10.20;99.90;;;;;;5105208;28;20428;-79
2022/01/03 05:03:10;;;;;;;;;;;10.20;99.90;;;;;;5097768;28;19912;-79
2022/01/03 05:05:35;;;;;;;;;;;10.20;99.90;;;;;;5100618;28;19915;-79
2022/01/03 05:08:01;;;;;;;;;;;10.20;99.90;;;;;;5130894;27;20015;-79
2022/01/03 05:10:26;;;;;;;;;;;10.20;99.90;;;;;;5093023;28;19916;-79
2022/01/03 05:12:52;;;;;;;;;;;10.20;1.00;;;;;;5114982;28;19916;-79
2022/01/03 05:15:17;;;;;;;;;;;10.30;99.90;;;;;;5104058;28;20425;-78
2022/01/03 05:17:43;;;;;;;;;;;10.20;99.90;;;;;;5108494;28;19948;-79
2022/01/03 05:20:08;;;;;;;;;;;10.20;99.90;;;;;;5130381;27;20029;-79
2022/01/03 05:22:34;;;;;;;;;;;10.20;99.90;;;;;;5096220;28;19937;-78
2022/01/03 05:24:59;;;;;;;;;;;10.30;99.90;;;;;;5106324;28;19950;-79
2022/01/03 05:27:25;;;;;;;;;;;10.30;99.90;;;;;;5115635;28;19988;-78
2022/01/03 05:29:50;;;;;;;;;;;10.30;99.90;;;;;;5101110;28;20406;-79
2022/01/03 05:32:16;;;;;;;;;;;10.30;99.90;;;;;;5077606;28;19988;-79
2022/01/03 05:34:41;;;;;;;;;;;10.30;99.90;;;;;;5117064;28;19908;-79
2022/01/03 05:37:07;;;;;;;;;;;10.40;99.90;;;;;;5119153;28;19916;-79
2022/01/03 05:39:32;;;;;;;;;;;10.40;99.90;;;;;;5104565;28;19992;-79
2022/01/03 05:41:58;;;;;;;;;;;10.40;99.90;;;;;;5109655;28;19954;-79
2022/01/03 05:44:23;;;;;;;;;;;10.40;99.90;;;;;;5100842;28;19916;-79
2022/01/03 05:46:49;;;;;;;;;;;10.40;99.90;;;;;;5126891;27;20013;-79
2022/01/03 05:49:15;;;;;;;;;;;10.40;99.90;;;;;;5094636;28;19908;-79
2022/01/03 05:51:40;;;;;;;;;;;10.40;99.90;;;;;;5102653;28;19916;-79
2022/01/03 05:54:06;;;;;;;;;;;10.40;99.90;;;;;;5098894;28;19912;-79
2022/01/03 05:56:31;;;;;;;;;;;10.40;99.90;;;;;;5102593;28;19958;-79
2022/01/03 05:58:57;;;;;;;;;;;10.40;99.90;;;;;;5096729;28;19934;-79
2022/01/03 06:01:23;;;;;;;;;;;10.40;99.90;;;;;;5106355;28;19918;-80
2022/01/03 06:03:58;;;;;;;;;;;10.40;99.90;;;;;;5105331;28;19916;-79
2022/01/03 06:06:31;;;;;;;;;;;10.30;99.90;;;;;;5089204;28;19912;-78
2022/01/03 06:08:57;;;;;;;;;;;10.30;99.90;;;;;;5106148;28;20448;-79
2022/01/03 06:11:23;;;;;;;;;;;10.30;99.90;;;;;;5114671;28;20008;-79
2022/01/03 06:13:49;;;;;;;;;;;10.20;99.90;;;;;;5087030;28;19919;-79
2022/01/03 06:16:14;;;;;;;;;;;10.20;99.90;;;;;;5115052;28;19908;-79
2022/01/03 06:18:43;;;;;;;;;;;10.20;99.90;;;;;;5104295;28;20383;-79
2022/01/03 06:21:09;;;;;;;;;;;10.20;99.90;;;;;;5114880;28;19998;-79
2022/01/03 06:23:34;;;;;;;;;;;10.20;99.90;;;;;;5088365;28;19959;-79
2022/01/03 06:26:00;;;;;;;;;;;10.20;99.90;;;;;;5114014;28;20291;-79
2022/01/03 06:28:25;;;;;;;;;;;10.20;99.90;;;;;;5106922;28;19912;-79
2022/01/03 06:30:51;;;;;;;;;;;10.20;99.90;;;;;;5120452;27;19908;-79
2022/01/03 06:33:16;;;;;;;;;;;10.20;99.90;;;;;;5092655;28;19986;-79
2022/01/03 06:35:42;;;;;;;;;;;10.30;99.90;;;;;;5100211;28;19931;-79
2022/01/03 06:38:07;;;;;;;;;;;10.30;99.90;;;;;;5102575;28;19912;-78
2022/01/03 06:40:33;;;;;;;;;;;10.30;99.90;;;;;;5106502;28;19910;-79
2022/01/03 06:42:58;;;;;;;;;;;10.30;99.90;;;;;;5095426;28;19912;-79
2022/01/03 06:45:24;;;;;;;;;;;10.30;99.90;;;;;;5103762;28;19915;-79
2022/01/03 06:47:50;;;;;;;;;;;10.30;99.90;;;;;;5094350;28;19912;-78
2022/01/03 06:50:16;;;;;;;;;;;10.30;1.00;;;;;;5104472;28;20425;-79
2022/01/03 06:52:41;;;;;;;;;;;10.40;1.00;;;;;;5094813;28;19937;-79
2022/01/03 06:55:08;;;;;;;;;;;10.30;35.50;;;;;;5096625;28;19917;-78
2022/01/03 06:57:33;;;;;;;;;;;10.40;5.80;;;;;;5097576;28;19919;-79
2022/01/03 06:59:59;;;;;;;;;;;10.40;1.00;;;;;;5096040;28;20399;-78
2022/01/03 07:02:24;;;;;;;;;;;10.40;1.00;;;;;;5094280;28;19916;-79
2022/01/03 07:04:50;;;;;;;;;;;10.40;1.00;;;;;;5095418;28;19923;-78
2022/01/03 07:07:15;;;;;;;;;;;10.40;99.90;;;;;;5104189;28;19919;-79
2022/01/03 07:09:41;;;;;;;;;;;10.40;46.30;;;;;;5111088;28;19908;-79
2022/01/03 07:12:07;;;;;;;;;;;10.30;99.90;;;;;;5103010;28;19926;-80
2022/01/03 07:19:45;;;;;;;;;;;10.40;1.00;;;;;;5104557;28;19918;-79
2022/01/03 07:22:10;;;;;;;;;;;10.40;99.90;;;;;;5095228;28;19915;-81
2022/01/03 07:24:37;;;;;;;;;;;10.40;99.90;;;;;;5103879;28;19912;-80
2022/01/03 07:27:03;;;;;;;;;;;10.40;99.90;;;;;;5096112;28;20002;-79
2022/01/03 07:29:29;;;;;;;;;;;10.40;99.90;;;;;;5105500;28;19957;-79
2022/01/03 07:31:55;;;;;;;;;;;10.40;99.90;;;;;;5115117;28;20007;-80
2022/01/03 07:34:20;;;;;;;;;;;10.40;99.90;;;;;;5112444;28;19912;-79
2022/01/03 07:36:46;;;;;;;;;;;10.40;99.90;;;;;;5116204;28;19915;-80
2022/01/03 07:39:11;;;;;;;;;;;10.40;99.90;;;;;;5113925;28;19915;-79
2022/01/03 07:41:37;;;;;;;;;;;10.30;99.90;;;;;;5116640;28;20003;-80
2022/01/03 07:44:02;;;;;;;;;;;10.40;1.00;;;;;;5114332;28;20342;-79
2022/01/03 07:46:28;;;;;;;;;;;10.40;1.00;;;;;;5115143;28;19908;-80
2022/01/03 07:48:53;;;;;;;;;;;10.40;1.00;;;;;;5096745;28;19916;-80
2022/01/03 07:51:19;;;;;;;;;;;10.40;1.00;;;;;;5127974;27;19920;-80
2022/01/03 07:53:44;;;;;;;;;;;10.30;1.00;;;;;;5094444;28;19912;-80
2022/01/03 07:56:10;;;;;;;;;;;10.40;60.00;;;;;;5094184;28;20379;-80
2022/01/03 07:58:36;;;;;;;;;;;10.40;99.90;;;;;;5107669;28;19939;-81
2022/01/03 08:01:02;;;;;;;;;;;10.40;99.90;;;;;;5108660;28;19957;-80
2022/01/03 08:03:27;;;;;;;;;;;10.40;1.00;;;;;;5100635;28;20050;-78
2022/01/03 08:05:53;;;;;;;;;;;10.40;1.00;;;;;;5091793;28;19916;-80
2022/01/03 08:08:19;;;;;;;;;;;10.40;1.00;;;;;;5104803;28;20264;-80
2022/01/03 08:10:46;;;;;;;;;;;10.40;1.00;;;;;;5103659;28;20000;-80
2022/01/03 08:13:12;;;;;;;;;;;10.40;5.40;;;;;;5130011;27;19912;-81
2022/01/03 08:15:38;;;;;;;;;;;10.40;1.00;;;;;;5101010;28;19912;-80
2022/01/03 08:18:04;;;;;;;;;;;10.40;1.00;;;;;;5100101;28;19912;-79
2022/01/03 08:20:29;;;;;;;;;;;10.40;1.00;;;;;;5104215;28;19908;-78
2022/01/03 08:22:55;;;;;;;;;;;10.40;1.00;;;;;;5091432;28;20372;-79
2022/01/03 08:25:21;;;;;;;;;;;10.40;1.00;;;;;;5101007;28;19948;-78
2022/01/03 08:27:46;;;;;;;;;;;10.50;1.00;;;;;;5098996;28;19951;-79
2022/01/03 08:30:12;;;;;;;;;;;10.50;1.00;;;;;;5098625;28;20336;-79
2022/01/03 08:32:37;;;;;;;;;;;10.50;1.00;;;;;;5107168;28;19957;-79
2022/01/03 08:35:03;;;;;;;;;;;10.50;1.00;;;;;;5116688;28;19911;-78
2022/01/03 08:37:29;;;;;;;;;;;10.50;1.00;;;;;;5109082;28;19912;-79
2022/01/03 08:39:54;;;;;;;;;;;10.50;99.90;;;;;;5107479;28;19934;-78
2022/01/03 08:42:20;;;;;;;;;;;10.60;99.90;;;;;;5099720;28;19939;-78
2022/01/03 08:44:46;;;;;;;;;;;10.70;99.90;;;;;;5110140;28;19912;-79
2022/01/03 08:47:11;;;;;;;;;;;10.80;1.00;;;;;;5110256;28;19915;-79
2022/01/03 08:49:37;;;;;;;;;;;10.90;99.90;;;;;;5103901;28;19912;-78
2022/01/03 08:52:05;;;;;;;;;;;10.90;1.00;;;;;;5107700;28;19965;-79
2022/01/03 08:54:31;;;;;;;;;;;11.00;1.00;;;;;;5099066;28;19999;-79
2022/01/03 08:56:56;;;;;;;;;;;11.10;99.90;;;;;;5106741;28;19954;-79
2022/01/03 08:59:22;;;;;;;;;;;11.20;1.00;;;;;;5108684;28;20349;-79
2022/01/03 09:01:48;;;;;;;;;;;11.30;1.00;;;;;;5110655;28;19965;-78
2022/01/03 09:04:13;;;;;;;;;;;11.40;7.60;;;;;;5105767;28;19954;-79
2022/01/03 09:06:39;;;;;;;;;;;11.40;1.00;;;;;;5107391;28;20587;-78
2022/01/03 09:09:06;;;;;;;;;;;11.50;99.90;;;;;;5095116;28;19957;-79
2022/01/03 09:11:31;;;;;;;;;;;11.50;1.00;;;;;;5090479;28;20399;-78
2022/01/03 09:13:57;;;;;;;;;;;11.50;1.00;;;;;;5093459;28;19916;-78
2022/01/03 09:16:22;;;;;;;;;;;11.50;1.00;;;;;;5100574;28;19956;-79
2022/01/03 09:18:48;;;;;;;;;;;11.40;1.00;;;;;;5092996;28;19919;-78
2022/01/03 09:21:13;;;;;;;;;;;11.50;99.90;;;;;;5098290;28;20022;-78
2022/01/03 09:23:44;;;;;;;;;;;11.50;99.90;;;;;;5093376;28;19912;-78
2022/01/03 09:28:53;;;;;;;;;;;11.50;99.90;;;;;;5091529;28;19927;-79
2022/01/03 09:31:30;;;;;;;;;;;11.60;99.90;;;;;;5098633;28;19916;-78
2022/01/03 09:33:57;;;;;;;;;;;11.80;99.90;;;;;;5092463;28;20013;-79
2022/01/03 09:36:23;;;;;;;;;;;12.10;1.00;;;;;;5096177;28;19919;-79
2022/01/03 09:38:49;;;;;;;;;;;12.20;99.90;;;;;;5092524;28;19915;-78
2022/01/03 09:41:17;;;;;;;;;;;12.30;99.90;;;;;;5080704;28;19920;-79
2022/01/03 09:43:50;;;;;;;;;;;12.40;99.90;;;;;;5094438;28;19912;-79
2022/01/03 09:46:19;;;;;;;;;;;12.60;1.00;;;;;;5095009;28;19974;-79
2022/01/03 09:48:45;;;;;;;;;;;12.50;1.00;;;;;;5102941;28;20317;-78
2022/01/03 09:51:11;;;;;;;;;;;12.30;1.00;;;;;;5096246;28;19951;-78
2022/01/03 09:53:38;;;;;;;;;;;12.10;1.00;;;;;;5099221;28;21071;-78
2022/01/03 09:56:05;;;;;;;;;;;12.10;1.00;;;;;;5101157;28;19916;-78
2022/01/03 09:58:31;;;;;;;;;;;12.10;1.00;;;;;;5095163;28;19908;-78
2022/01/03 10:00:56;;;;;;;;;;;12.10;1.00;;;;;;5095841;28;19912;-79
2022/01/03 10:03:22;;;;;;;;;;;12.10;1.00;;;;;;5095270;28;20441;-78
2022/01/03 10:05:47;;;;;;;;;;;12.00;1.00;;;;;;5095940;28;19908;-78
2022/01/03 10:08:13;;;;;;;;;;;12.00;1.00;;;;;;5097152;28;19916;-78
2022/01/03 10:10:38;;;;;;;;;;;12.00;1.00;;;;;;5128353;27;19918;-78
2022/01/03 10:13:04;;;;;;;;;;;12.00;1.00;;;;;;5128629;27;19950;-78
2022/01/03 10:15:29;;;;;;;;;;;12.10;1.00;;;;;;5095899;28;19935;-78
2022/01/03 10:17:55;;;;;;;;;;;12.00;1.00;;;;;;5100937;28;20292;-78
2022/01/03 10:20:20;;;;;;;;;;;12.00;1.00;;;;;;5096800;28;20011;-79
2022/01/03 10:22:46;;;;;;;;;;;12.00;1.00;;;;;;5095820;28;19947;-79
2022/01/03 10:25:17;;;;;;;;;;;12.00;1.00;;;;;;5113225;28;19912;-78
2022/01/03 10:27:43;;;;;;;;;;;12.10;1.00;;;;;;5105569;28;19952;-78
2022/01/03 10:30:09;;;;;;;;;;;12.20;1.00;;;;;;5093663;28;19919;-78
2022/01/03 10:32:35;;;;;;;;;;;12.30;1.00;;;;;;5101432;28;20011;-78
2022/01/03 10:35:13;;;;;;;;;;;12.40;1.00;;;;;;5095167;28;19916;-79
2022/01/03 10:37:38;;;;;;;;;;;12.50;1.00;;;;;;5092899;28;19912;-78
2022/01/03 10:40:17;;;;;;;;;;;12.60;1.00;;;;;;5087404;28;20338;-78
2022/01/03 10:42:43;;;;;;;;;;;12.50;1.00;;;;;;5091376;28;19921;-79
2022/01/03 10:45:08;;;;;;;;;;;12.40;1.00;;;;;;5088217;28;19938;-78
2022/01/03 10:47:34;;;;;;;;;;;12.40;1.00;;;;;;5098579;28;19912;-77
2022/01/03 10:50:12;;;;;;;;;;;12.30;1.00;;;;;;5089126;28;19952;-78
2022/01/03 10:52:40;;;;;;;;;;;12.30;1.00;;;;;;5093313;28;19951;-79
2022/01/03 10:55:17;;;;;;;;;;;12.30;1.00;;;;;;5103920;22;19929;-78
2022/01/03 10:57:45;;;;;;;;;;;12.30;1.00;;;;;;5071637;28;19962;-79
2022/01/03 11:00:31;;;;;;;;;;;12.50;1.00;;;;;;5055294;28;19923;-80
2022/01/03 11:05:52;;;;;;;;;;;13.10;1.00;;;;;;5073387;28;19919;-78
2022/01/03 11:11:04;;;;;;;;;;;13.80;99.90;;;;;;5073633;28;19919;-80
2022/01/03 11:13:31;;;;;;;;;;;14.20;99.90;;;;;;5072313;28;20011;-78
2022/01/03 11:16:00;;;;;;;;;;;14.40;99.90;;;;;;5073555;28;20366;-79
2022/01/03 11:18:26;;;;;;;;;;;14.50;99.90;;;;;;5074046;28;19962;-79
2022/01/03 11:21:11;;;;;;;;;;;14.30;99.90;;;;;;5070926;28;19952;-80
2022/01/03 11:23:37;;;;;;;;;;;14.10;1.00;;;;;;5055833;28;19959;-77
2022/01/03 11:26:07;;;;;;;;;;;13.70;1.00;;;;;;5070836;28;19920;-78
2022/01/03 11:28:33;;;;;;;;;;;13.50;1.00;;;;;;5056419;28;19940;-79
2022/01/03 11:30:59;;;;;;;;;;;13.30;1.00;;;;;;5073990;28;19954;-78
2022/01/03 11:33:25;;;;;;;;;;;13.30;1.00;;;;;;5056335;28;19912;-79
2022/01/03 11:35:50;;;;;;;;;;;13.10;1.00;;;;;;5050617;28;19920;-78
2022/01/03 11:38:18;;;;;;;;;;;13.00;1.00;;;;;;5070177;28;19916;-78
2022/01/03 11:40:44;;;;;;;;;;;12.80;1.00;;;;;;5053641;28;19912;-79
2022/01/03 11:43:10;;;;;;;;;;;12.70;1.00;;;;;;5071638;28;19916;-79
2022/01/03 11:45:35;;;;;;;;;;;12.60;1.00;;;;;;5072870;28;20278;-78
2022/01/03 11:48:01;;;;;;;;;;;12.40;1.00;;;;;;5073903;28;19912;-78
2022/01/03 11:50:27;;;;;;;;;;;12.30;1.00;;;;;;5069358;28;19912;-79
2022/01/03 11:52:53;;;;;;;;;;;12.30;6.80;;;;;;5071224;28;20058;-79
2022/01/03 11:55:22;;;;;;;;;;;12.30;18.80;;;;;;5069681;28;19944;-79
2022/01/03 12:03:37;;;;;;;;;;;12.10;56.10;;;;;;5071350;28;19935;-78
2022/01/03 12:06:05;;;;;;;;;;;12.00;86.40;;;;;;5070454;28;20285;-79
2022/01/03 12:08:33;;;;;;;;;;;12.00;99.90;;;;;;5071553;28;20375;-79
2022/01/03 12:11:00;;;;;;;;;;;11.80;99.90;;;;;;5064896;28;19962;-79
2022/01/03 12:13:44;;;;;;;;;;;11.80;99.90;;;;;;5071035;28;19916;-79
2022/01/03 12:16:09;;;;;;;;;;;11.70;99.90;;;;;;5073592;28;19955;-78
2022/01/03 12:18:35;;;;;;;;;;;11.60;1.00;;;;;;5071717;28;19916;-79
2022/01/03 12:21:00;;;;;;;;;;;11.30;1.00;;;;;;5072138;28;19909;-78
2022/01/03 12:23:36;;;;;;;;;;;11.10;1.00;;;;;;5069883;28;19943;-78
2022/01/03 12:26:08;;;;;;;;;;;11.00;99.90;;;;;;5072772;28;20295;-79
2022/01/03 12:28:52;;;;;;;;;;;10.80;99.90;;;;;;5073507;28;20439;-78
2022/01/03 12:31:18;;;;;;;;;;;10.70;99.90;;;;;;5063597;28;20092;-78
2022/01/03 12:34:03;;;;;;;;;;;10.60;99.90;;;;;;5072724;28;19974;-78
2022/01/03 12:36:29;;;;;;;;;;;10.50;99.90;;;;;;5071426;28;19919;-78
2022/01/03 12:39:01;;;;;;;;;;;10.30;99.90;;;;;;5068736;28;19921;-77
2022/01/03 12:41:39;;;;;;;;;;;10.30;99.90;;;;;;5074158;28;19920;-78
2022/01/03 12:44:05;;;;;;;;;;;10.20;99.90;;;;;;5069443;28;19989;-78
2022/01/03 12:46:30;;;;;;;;;;;10.10;1.00;;;;;;5064816;28;19971;-77
2022/01/03 12:49:16;;;;;;;;;;;10.10;1.00;;;;;;5067700;28;19913;-78
2022/01/03 12:51:41;;;;;;;;;;;10.10;1.00;;;;;;5072640;28;19948;-78
2022/01/03 12:54:07;;;;;;;;;;;10.10;1.00;;;;;;5071367;28;19959;-78
2022/01/03 12:56:33;;;;;;;;;;;10.00;1.00;;;;;;5072706;28;19912;-78
2022/01/03 12:59:08;;;;;;;;;;;10.00;1.00;;;;;;5072921;28;19999;-77
2022/01/03 13:01:33;;;;;;;;;;;10.00;1.00;;;;;;5069935;28;19912;-78
2022/01/03 13:04:00;;;;;;;;;;;10.10;1.00;;;;;;5071211;28;20003;-79
2022/01/03 13:06:25;;;;;;;;;;;10.20;1.00;;;;;;5054649;28;19916;-78
2022/01/03 13:08:54;;;;;;;;;;;10.30;1.00;;;;;;5069117;28;20008;-78
2022/01/03 13:11:23;;;;;;;;;;;10.40;1.00;;;;;;5065054;28;19909;-78
2022/01/03 13:13:51;;;;;;;;;;;10.50;99.90;;;;;;5052275;28;19978;-78
2022/01/03 13:16:22;;;;;;;;;;;10.60;99.90;;;;;;5072144;28;19920;-78
2022/01/03 13:18:52;;;;;;;;;;;10.60;99.90;;;;;;5068920;28;19917;-79
2022/01/03 13:21:18;;;;;;;;;;;10.60;99.90;;;;;;5074885;28;19959;-78
2022/01/03 13:23:56;;;;;;;;;;;10.70;99.90;;;;;;5073958;28;20327;-78
2022/01/03 13:26:22;;;;;;;;;;;10.70;99.90;;;;;;5057625;28;19919;-78
2022/01/03 13:28:49;;;;;;;;;;;10.70;99.90;;;;;;5075995;28;19913;-78
2022/01/03 13:31:14;;;;;;;;;;;10.70;15.80;;;;;;5074352;28;19982;-78
2022/01/03 13:33:40;;;;;;;;;;;10.80;1.00;;;;;;5074922;28;20433;-78
2022/01/03 13:36:06;;;;;;;;;;;10.80;1.00;;;;;;5076065;28;19912;-77
2022/01/03 13:38:32;;;;;;;;;;;10.80;99.90;;;;;;5072210;28;19913;-78
2022/01/03 13:41:09;;;;;;;;;;;10.80;99.90;;;;;;5075119;28;19920;-78
2022/01/03 13:43:40;;;;;;;;;;;10.80;93.40;;;;;;5072889;28;19920;-78
2022/01/03 13:51:18;;;;;;;;;;;10.70;71.00;;;;;;5072936;28;19920;-79
2022/01/03 13:53:50;;;;;;;;;;;10.70;99.90;;;;;;5073483;28;19912;-78
2022/01/03 13:56:16;;;;;;;;;;;10.60;1.00;;;;;;5063391;28;19912;-78
2022/01/03 13:58:43;;;;;;;;;;;10.50;1.00;;;;;;5072043;28;19913;-78
2022/01/03 14:01:09;;;;;;;;;;;10.50;99.90;;;;;;5071093;28;19920;-78
2022/01/03 14:03:36;;;;;;;;;;;10.40;99.90;;;;;;5074098;28;19916;-79
2022/01/03 14:06:15;;;;;;;;;;;10.40;1.00;;;;;;5075841;28;19935;-78
2022/01/03 14:08:40;;;;;;;;;;;10.30;99.90;;;;;;5059301;28;19935;-77
2022/01/03 14:11:11;;;;;;;;;;;10.30;99.90;;;;;;5055237;28;19913;-78
2022/01/03 14:13:36;;;;;;;;;;;10.20;99.90;;;;;;5055436;28;19912;-79
2022/01/03 14:16:03;;;;;;;;;;;10.20;99.90;;;;;;5077762;28;19908;-79
2022/01/03 14:18:33;;;;;;;;;;;10.10;99.90;;;;;;5073834;28;19965;-79
2022/01/03 14:21:14;;;;;;;;;;;10.10;99.90;;;;;;5076606;28;19912;-79
2022/01/03 14:23:40;;;;;;;;;;;10.10;99.90;;;;;;5072961;28;19999;-78
2022/01/03 14:26:25;;;;;;;;;;;10.00;99.90;;;;;;5076923;28;20387;-79
2022/01/03 14:28:52;;;;;;;;;;;10.00;1.00;;;;;;5068187;28;19916;-79
2022/01/03 14:31:17;;;;;;;;;;;10.00;1.00;;;;;;5074306;28;19912;-79
2022/01/03 14:33:43;;;;;;;;;;;9.90;1.00;;;;;;5071711;28;19920;-78
2022/01/03 14:36:13;;;;;;;;;;;9.90;1.00;;;;;;5058591;28;19913;-79
2022/01/03 14:38:40;;;;;;;;;;;9.90;1.00;;;;;;5072431;28;19916;-79
2022/01/03 14:41:12;;;;;;;;;;;9.90;1.00;;;;;;5058981;28;20345;-78
2022/01/03 14:43:37;;;;;;;;;;;9.90;1.00;;;;;;5054325;28;19913;-79
2022/01/03 14:46:07;;;;;;;;;;;9.90;1.00;;;;;;5077339;28;19975;-79
2022/01/03 14:48:33;;;;;;;;;;;9.80;1.00;;;;;;5057270;28;19965;-79
2022/01/03 14:51:06;;;;;;;;;;;9.80;1.00;;;;;;5075679;28;19916;-78
2022/01/03 14:53:31;;;;;;;;;;;9.80;1.00;;;;;;5071612;28;19925;-79